Time;durP1;ratioP1;P1;durP2;ratioP2;P2;SDS_P1;SDS_P2;PMS_P1;PMS_P2;Temp;Humidity;BMP_temperature;BMP_pressure;BME280_temperature;BME280_humidity;BME280_pressure;Samples;Min_cycle;Max_cycle;Signal;HPM_P1;HPM_P2
2023/04/17 00:00:08;;;;;;;9.90;8.90;;;;;;;18.59;56.65;100180.98;104287;1254;71855;-63
2023/04/17 00:02:38;;;;;;;9.30;8.00;;;;;;;18.67;56.44;100181.75;104255;1257;60533;-64
2023/04/17 00:05:08;;;;;;;9.90;8.80;;;;;;;18.69;56.30;100180.17;104274;1268;60719;-64
2023/04/17 00:07:37;;;;;;;11.00;8.80;;;;;;;18.75;56.22;100173.73;104330;1257;73054;-63
2023/04/17 00:10:07;;;;;;;9.20;8.30;;;;;;;18.74;56.24;100176.28;104312;1257;69258;-65
2023/04/17 00:12:36;;;;;;;12.60;8.80;;;;;;;18.76;56.20;100179.17;104285;1261;72275;-64
2023/04/17 00:15:05;;;;;;;9.00;8.20;;;;;;;18.77;56.10;100180.51;104252;1260;60790;-63
2023/04/17 00:17:34;;;;;;;9.10;8.10;;;;;;;18.79;55.98;100175.90;104423;1253;62984;-63
2023/04/17 00:20:09;;;;;;;10.70;8.30;;;;;;;18.80;56.02;100177.27;104363;1257;73604;-63
2023/04/17 00:22:38;;;;;;;8.80;8.00;;;;;;;18.89;55.75;100175.07;104402;1268;69757;-63
2023/04/17 00:25:09;;;;;;;11.60;9.30;;;;;;;18.84;55.61;100174.89;104245;1256;72791;-63
2023/04/17 00:27:37;;;;;;;10.30;8.20;;;;;;;18.81;55.81;100176.36;104263;1254;61568;-64
2023/04/17 00:30:07;;;;;;;8.50;7.70;;;;;;;18.82;55.82;100169.67;104407;1252;60450;-63
2023/04/17 00:32:36;;;;;;;10.30;8.60;;;;;;;18.81;55.83;100171.56;104265;1256;72755;-63
2023/04/17 00:35:06;;;;;;;12.00;7.70;;;;;;;18.79;55.97;100170.95;104297;1260;68969;-63
2023/04/17 00:37:35;;;;;;;9.10;8.20;;;;;;;18.78;55.86;100173.34;104373;1260;72585;-63
2023/04/17 00:40:04;;;;;;;8.60;7.80;;;;;;;18.75;56.12;100172.66;104334;1270;62046;-63
2023/04/17 00:42:32;;;;;;;9.50;8.20;;;;;;;18.82;55.95;100176.23;104355;1257;60546;-63
2023/04/17 00:45:01;;;;;;;9.40;8.20;;;;;;;18.87;55.84;100170.75;104285;1254;72834;-63
2023/04/17 00:47:29;;;;;;;8.30;7.50;;;;;;;18.90;55.69;100171.09;104348;1252;70132;-64
2023/04/17 00:49:58;;;;;;;7.90;7.20;;;;;;;18.92;55.65;100175.03;104262;1254;72247;-63
2023/04/17 00:52:28;;;;;;;8.30;7.60;;;;;;;18.93;55.64;100169.50;104197;1262;62276;-63
2023/04/17 00:54:57;;;;;;;8.50;7.40;;;;;;;18.95;55.63;100168.27;104336;1256;60754;-63
2023/04/17 00:57:26;;;;;;;10.30;8.20;;;;;;;18.92;55.36;100167.95;104460;1256;73086;-64
2023/04/17 00:59:55;;;;;;;8.00;7.30;;;;;;;18.87;55.57;100168.13;104320;1256;70439;-63
2023/04/17 01:02:24;;;;;;;7.90;7.20;;;;;;;18.88;55.59;100165.52;104276;1256;72142;-63
2023/04/17 01:04:53;;;;;;;8.00;7.20;;;;;;;18.85;55.74;100166.63;104337;1255;61269;-63
2023/04/17 01:07:22;;;;;;;7.30;6.70;;;;;;;18.78;55.84;100165.88;104247;1267;60457;-63
2023/04/17 01:09:50;;;;;;;10.60;7.70;;;;;;;18.78;55.95;100167.33;104337;1261;73943;-63
2023/04/17 01:12:21;;;;;;;8.40;7.40;;;;;;;18.82;55.90;100169.86;104373;1269;69159;-63
2023/04/17 01:14:53;;;;;;;9.50;7.10;;;;;;;18.79;55.93;100162.59;104639;1256;72218;-63
2023/04/17 01:17:21;;;;;;;7.80;7.00;;;;;;;18.80;56.08;100163.61;104246;1262;62047;-64
2023/04/17 01:19:50;;;;;;;8.20;7.40;;;;;;;18.80;56.13;100163.63;104417;1268;60555;-63
2023/04/17 01:22:19;;;;;;;8.10;7.30;;;;;;;18.82;56.05;100167.95;104362;1264;73428;-63
2023/04/17 01:24:48;;;;;;;8.00;7.20;;;;;;;18.84;56.00;100165.12;104315;1257;69643;-63
2023/04/17 01:27:16;;;;;;;8.20;7.50;;;;;;;18.87;55.75;100168.84;104304;1254;72681;-63
2023/04/17 01:29:46;;;;;;;8.10;7.30;;;;;;;18.86;55.83;100166.75;104322;1254;61313;-62
2023/04/17 01:32:16;;;;;;;7.80;7.10;;;;;;;18.91;55.72;100168.53;104328;1256;60821;-64
2023/04/17 01:34:44;;;;;;;9.50;7.30;;;;;;;18.91;55.84;100166.61;104416;1259;74297;-63
2023/04/17 01:37:13;;;;;;;10.10;6.90;;;;;;;18.92;55.55;100166.91;104433;1254;68583;-64
2023/04/17 01:39:41;;;;;;;7.40;6.70;;;;;;;18.90;55.77;100167.74;104252;1276;71907;-62
2023/04/17 01:42:09;;;;;;;10.40;6.90;;;;;;;18.87;55.81;100167.45;104359;1264;61117;-62
2023/04/17 01:44:38;;;;;;;7.60;6.80;;;;;;;18.90;55.81;100166.66;104318;1262;60587;-63
2023/04/17 01:47:07;;;;;;;7.70;7.10;;;;;;;18.94;55.70;100162.83;104332;1256;73003;-63
2023/04/17 01:49:35;;;;;;;7.40;6.70;;;;;;;18.97;55.68;100161.20;104322;1256;70144;-63
2023/04/17 01:52:04;;;;;;;7.50;6.70;;;;;;;18.97;55.60;100162.98;104452;1260;72972;-63
2023/04/17 01:54:32;;;;;;;7.70;7.00;;;;;;;18.96;55.43;100166.05;104267;1270;61921;-63
2023/04/17 01:57:01;;;;;;;7.90;7.20;;;;;;;18.91;55.60;100168.23;104352;1255;60590;-63
2023/04/17 01:59:29;;;;;;;7.30;6.60;;;;;;;18.89;55.87;100172.08;104416;1266;73133;-64
2023/04/17 02:01:57;;;;;;;7.30;6.60;;;;;;;18.90;56.00;100172.50;104396;1259;70293;-64
2023/04/17 02:04:26;;;;;;;6.90;6.20;;;;;;;18.93;55.96;100176.57;104437;1273;71942;-64
2023/04/17 02:06:55;;;;;;;7.30;6.60;;;;;;;18.91;55.95;100178.84;104427;1257;62142;-63
2023/04/17 02:09:24;;;;;;;9.10;7.40;;;;;;;18.89;56.07;100178.13;104304;1256;60452;-63
2023/04/17 02:11:52;;;;;;;8.50;7.10;;;;;;;18.88;56.12;100172.88;104349;1257;74100;-63
2023/04/17 02:14:20;;;;;;;8.40;7.10;;;;;;;18.87;56.11;100172.73;104346;1257;68756;-63
2023/04/17 02:16:49;;;;;;;7.10;6.50;;;;;;;18.86;56.13;100170.88;104315;1256;72893;-63
2023/04/17 02:19:18;;;;;;;8.90;7.30;;;;;;;18.86;56.13;100167.33;104308;1263;61414;-63
2023/04/17 02:21:46;;;;;;;8.40;7.40;;;;;;;18.85;56.09;100167.89;104367;1252;60527;-63
2023/04/17 02:24:14;;;;;;;8.60;6.90;;;;;;;18.86;56.10;100169.23;104322;1271;73218;-63
2023/04/17 02:26:43;;;;;;;7.80;7.00;;;;;;;18.87;55.97;100170.10;104361;1257;70485;-63
2023/04/17 02:29:13;;;;;;;9.10;7.10;;;;;;;18.79;56.16;100170.81;104281;1254;71943;-63
2023/04/17 02:31:42;;;;;;;7.60;6.90;;;;;;;18.73;56.24;100170.85;104411;1266;60911;-64
2023/04/17 02:34:11;;;;;;;7.70;7.00;;;;;;;18.69;56.35;100172.66;104184;1270;61533;-64
2023/04/17 02:36:40;;;;;;;7.80;7.10;;;;;;;18.71;56.39;100174.16;104314;1266;72623;-64
2023/04/17 02:39:08;;;;;;;7.90;7.10;;;;;;;18.73;56.35;100177.20;104312;1257;70187;-63
2023/04/17 02:41:39;;;;;;;7.30;6.60;;;;;;;18.77;56.32;100178.55;104389;1256;72953;-64
2023/04/17 02:44:08;;;;;;;7.00;6.40;;;;;;;18.75;56.47;100181.48;104292;1257;61831;-64
2023/04/17 02:46:37;;;;;;;7.00;6.10;;;;;;;18.78;56.23;100182.56;104336;1254;61091;-63
2023/04/17 02:49:06;;;;;;;6.50;5.90;;;;;;;18.78;56.35;100186.81;104325;1254;74583;-63
2023/04/17 02:51:35;;;;;;;8.00;7.20;;;;;;;18.80;56.31;100185.30;104399;1267;70311;-65
2023/04/17 02:54:04;;;;;;;6.30;5.70;;;;;;;18.82;56.28;100188.69;104218;1273;72161;-63
2023/04/17 02:56:33;;;;;;;8.90;7.20;;;;;;;18.76;56.41;100196.20;104320;1253;61363;-63
2023/04/17 02:59:02;;;;;;;8.10;6.30;;;;;;;18.74;56.46;100196.36;104451;1260;60440;-63
2023/04/17 03:01:32;;;;;;;6.90;6.30;;;;;;;18.73;56.73;100196.73;104270;1273;74051;-63
2023/04/17 03:04:01;;;;;;;9.90;6.60;;;;;;;18.75;56.66;100198.41;104434;1255;70744;-66
2023/04/17 03:06:30;;;;;;;9.40;6.20;;;;;;;18.71;56.85;100198.69;104398;1275;72151;-66
2023/04/17 03:08:59;;;;;;;6.50;5.80;;;;;;;18.72;56.89;100200.72;104470;1264;61199;-65
2023/04/17 03:11:28;;;;;;;7.20;6.50;;;;;;;18.74;56.92;100198.10;104315;1257;59960;-64
2023/04/17 03:13:56;;;;;;;6.90;6.40;;;;;;;18.75;56.80;100201.73;104477;1272;73666;-63
2023/04/17 03:16:24;;;;;;;7.70;6.50;;;;;;;18.81;56.55;100206.50;104278;1266;69102;-66
2023/04/17 03:18:53;;;;;;;6.60;6.00;;;;;;;18.83;56.51;100212.05;104325;1272;71852;-64
2023/04/17 03:21:22;;;;;;;6.90;6.20;;;;;;;18.83;56.51;100212.28;104342;1257;61908;-65
2023/04/17 03:23:50;;;;;;;7.40;6.70;;;;;;;18.81;56.69;100213.12;104495;1257;60581;-61
2023/04/17 03:26:20;;;;;;;7.30;6.60;;;;;;;18.82;56.71;100216.39;104451;1257;72785;-64
2023/04/17 03:28:49;;;;;;;7.50;6.20;;;;;;;18.87;56.44;100217.34;104311;1254;68423;-61
2023/04/17 03:31:17;;;;;;;7.80;6.50;;;;;;;18.86;56.41;100216.85;104243;1254;72052;-61
2023/04/17 03:33:46;;;;;;;6.40;5.90;;;;;;;18.85;56.42;100217.62;104305;1257;62112;-61
2023/04/17 03:36:15;;;;;;;7.40;6.70;;;;;;;18.87;56.40;100216.11;104194;1261;60044;-61
2023/04/17 03:38:44;;;;;;;8.10;6.90;;;;;;;18.89;56.30;100216.46;104336;1257;73250;-63
2023/04/17 03:41:13;;;;;;;8.10;6.30;;;;;;;18.85;56.37;100219.89;104387;1264;69483;-61
2023/04/17 03:43:42;;;;;;;9.70;6.50;;;;;;;18.84;56.49;100217.39;104346;1266;72122;-62
2023/04/17 03:46:10;;;;;;;7.30;6.60;;;;;;;18.82;56.50;100224.77;104240;1258;62040;-62
2023/04/17 03:48:39;;;;;;;7.10;6.40;;;;;;;18.82;56.61;100230.27;104253;1258;60763;-61
2023/04/17 03:51:07;;;;;;;7.80;6.30;;;;;;;18.86;56.59;100231.59;104339;1257;73847;-61
2023/04/17 03:53:36;;;;;;;6.70;6.00;;;;;;;18.88;56.42;100234.30;104337;1260;69108;-61
2023/04/17 03:56:06;;;;;;;6.80;5.70;;;;;;;18.93;56.26;100238.42;104392;1256;72696;-61
2023/04/17 03:58:37;;;;;;;6.40;5.80;;;;;;;18.91;56.41;100239.94;104368;1260;61894;-60
2023/04/17 04:01:09;;;;;;;6.50;5.80;;;;;;;18.94;56.28;100239.94;104309;1256;60565;-61
2023/04/17 04:03:41;;;;;;;6.10;5.50;;;;;;;18.95;56.23;100242.51;104316;1257;73433;-61
2023/04/17 04:06:11;;;;;;;6.80;6.20;;;;;;;18.95;56.28;100243.42;104327;1260;68716;-62
2023/04/17 04:08:39;;;;;;;6.90;6.20;;;;;;;18.97;56.21;100241.13;104316;1260;71858;-61
2023/04/17 04:11:10;;;;;;;6.90;6.00;;;;;;;19.01;56.15;100243.70;104312;1260;60823;-61
2023/04/17 04:13:38;;;;;;;8.70;6.00;;;;;;;19.06;56.02;100243.91;104352;1257;60466;-61
2023/04/17 04:16:07;;;;;;;6.60;6.00;;;;;;;19.12;55.88;100245.62;104223;1267;73060;-60
2023/04/17 04:18:36;;;;;;;6.60;5.50;;;;;;;19.16;55.71;100245.55;104305;1272;69269;-61
2023/04/17 04:21:05;;;;;;;7.50;5.80;;;;;;;19.13;55.52;100248.08;104359;1259;72841;-61
2023/04/17 04:23:39;;;;;;;5.60;4.90;;;;;;;19.11;55.84;100245.34;104333;1259;61805;-61
2023/04/17 04:26:10;;;;;;;6.90;5.30;;;;;;;19.11;55.80;100244.09;104326;1258;59842;-61
2023/04/17 04:28:43;;;;;;;6.10;5.20;;;;;;;19.07;56.10;100249.18;104440;1255;73786;-61
2023/04/17 04:31:30;;;;;;;6.60;5.70;;;;;;;19.08;56.21;100250.55;104452;1257;68762;-61
2023/04/17 04:34:01;;;;;;;6.00;5.40;;;;;;;19.07;56.35;100255.18;104312;1272;72824;-60
2023/04/17 04:36:30;;;;;;;6.30;5.80;;;;;;;19.06;56.36;100255.98;104303;1266;62262;-61
2023/04/17 04:39:19;;;;;;;6.50;4.80;;;;;;;19.06;56.70;100256.02;104416;1258;60571;-61
2023/04/17 04:41:51;;;;;;;6.00;5.40;;;;;;;19.05;56.92;100257.44;104351;1259;74276;-61
2023/04/17 04:44:21;;;;;;;6.80;5.30;;;;;;;19.08;56.71;100253.75;104235;1276;68719;-61
2023/04/17 04:46:54;;;;;;;7.80;5.60;;;;;;;19.11;56.57;100251.90;104363;1254;72849;-61
2023/04/17 04:49:23;;;;;;;6.10;5.50;;;;;;;19.10;56.28;100257.66;104332;1266;61289;-61
2023/04/17 04:51:51;;;;;;;5.20;4.70;;;;;;;19.13;56.12;100258.02;104331;1267;60067;-62
2023/04/17 04:54:20;;;;;;;6.10;5.50;;;;;;;19.15;55.93;100258.91;104313;1257;74026;-61
2023/04/17 04:56:53;;;;;;;6.20;4.80;;;;;;;19.15;55.89;100255.39;104326;1257;69115;-61
2023/04/17 04:59:22;;;;;;;5.70;5.10;;;;;;;19.16;56.09;100253.73;104445;1258;71780;-61
2023/04/17 05:01:58;;;;;;;6.30;4.90;;;;;;;19.20;55.94;100255.92;104286;1261;61384;-61
2023/04/17 05:04:27;;;;;;;5.50;4.90;;;;;;;19.16;56.05;100257.60;104444;1254;60549;-61
2023/04/17 05:06:58;;;;;;;5.10;4.60;;;;;;;19.12;55.88;100259.70;104457;1254;73634;-64
2023/04/17 05:09:34;;;;;;;7.00;5.00;;;;;;;19.12;56.07;100258.98;104591;1254;69544;-61
2023/04/17 05:12:09;;;;;;;7.90;5.20;;;;;;;19.13;56.11;100262.63;104537;1260;72535;-61
2023/04/17 05:14:38;;;;;;;5.10;4.60;;;;;;;19.12;55.75;100263.58;104501;1256;62001;-63
2023/04/17 05:17:07;;;;;;;5.90;5.30;;;;;;;19.15;55.81;100270.34;104573;1254;60603;-61
2023/04/17 05:19:35;;;;;;;4.90;4.40;;;;;;;19.14;56.02;100274.14;104348;1257;73784;-62
2023/04/17 05:22:06;;;;;;;6.90;4.60;;;;;;;19.19;56.11;100274.29;104413;1256;68767;-60
2023/04/17 05:24:39;;;;;;;5.40;5.00;;;;;;;19.25;56.10;100276.72;104383;1253;71950;-61
2023/04/17 05:27:09;;;;;;;8.80;5.00;;;;;;;19.24;56.13;100275.91;104501;1254;62093;-62
2023/04/17 05:29:38;;;;;;;5.60;5.10;;;;;;;19.20;56.12;100279.76;104284;1273;60066;-62
2023/04/17 05:32:07;;;;;;;4.60;4.20;;;;;;;19.27;55.81;100280.67;104296;1259;73984;-62
2023/04/17 05:34:58;;;;;;;4.80;4.40;;;;;;;19.35;55.84;100281.51;104282;1268;69467;-63
2023/04/17 05:37:28;;;;;;;9.00;4.60;;;;;;;19.37;55.67;100280.50;104278;1257;72422;-64
2023/04/17 05:39:58;;;;;;;5.40;4.00;;;;;;;19.40;55.23;100279.03;104348;1257;62700;-62
2023/04/17 05:42:28;;;;;;;5.60;4.20;;;;;;;19.43;55.26;100278.70;104365;1269;59930;-62
2023/04/17 05:44:56;;;;;;;4.40;3.90;;;;;;;19.42;55.15;100276.77;104332;1260;75636;-61
2023/04/17 05:47:25;;;;;;;6.30;4.00;;;;;;;19.42;55.02;100279.08;104392;1258;68891;-65
2023/04/17 05:49:56;;;;;;;4.30;3.90;;;;;;;19.43;54.84;100281.89;104300;1257;71995;-62
2023/04/17 05:52:27;;;;;;;6.10;3.90;;;;;;;19.44;54.85;100283.21;104990;1254;62135;-61
2023/04/17 05:54:56;;;;;;;7.20;4.10;;;;;;;19.47;54.09;100284.97;104392;1252;61699;-60
2023/04/17 05:57:25;;;;;;;4.60;3.50;;;;;;;19.55;54.10;100283.19;104223;1260;72725;-64
2023/04/17 05:59:53;;;;;;;6.00;3.50;;;;;;;19.59;53.79;100280.42;104531;1269;69446;-61
2023/04/17 06:02:22;;;;;;;4.00;3.50;;;;;;;19.62;53.48;100283.79;104922;1254;72821;-62
2023/04/17 06:04:50;;;;;;;4.20;3.20;;;;;;;19.66;53.54;100283.27;104417;1256;60652;-60
2023/04/17 06:07:19;;;;;;;5.70;3.40;;;;;;;19.73;53.20;100285.49;104541;1260;60492;-62
2023/04/17 06:09:48;;;;;;;3.50;3.20;;;;;;;19.76;52.59;100283.70;104462;1257;74041;-62
2023/04/17 06:12:16;;;;;;;3.60;3.20;;;;;;;19.82;52.87;100286.49;104308;1257;70450;-62
2023/04/17 06:14:45;;;;;;;3.10;2.80;;;;;;;19.87;52.11;100284.71;104812;1254;72192;-61
2023/04/17 06:17:14;;;;;;;4.50;2.70;;;;;;;19.92;52.13;100285.92;104308;1258;61846;-63
2023/04/17 06:19:43;;;;;;;4.20;3.20;;;;;;;19.95;51.51;100287.82;104210;1264;60559;-64
2023/04/17 06:22:11;;;;;;;8.40;3.10;;;;;;;20.05;51.93;100283.95;104541;1259;73178;-63
2023/04/17 06:27:40;;;;;;;6.50;3.00;;;;;;;19.15;58.10;100294.07;101371;1294;601576;-63
2023/04/17 06:30:10;;;;;;;3.40;3.10;;;;;;;20.42;50.69;100291.58;103961;1269;61799;-63
2023/04/17 06:32:48;;;;;;;4.00;2.60;;;;;;;20.45;49.96;100292.06;104158;1264;62040;-66
2023/04/17 06:35:16;;;;;;;3.40;3.00;;;;;;;20.36;48.86;100291.48;103848;1277;71524;-63
2023/04/17 06:37:49;;;;;;;3.10;2.40;;;;;;;20.32;48.72;100291.75;104365;1261;69728;-62
2023/04/17 06:40:17;;;;;;;4.70;2.80;;;;;;;20.28;48.60;100291.39;104370;1262;312475;-64
2023/04/17 06:42:46;;;;;;;2.70;2.40;;;;;;;20.23;48.43;100295.81;104446;1258;61126;-65
2023/04/17 06:45:19;;;;;;;3.00;2.70;;;;;;;20.22;48.08;100300.11;104467;1261;59658;-65
2023/04/17 06:47:48;;;;;;;3.80;2.70;;;;;;;20.23;47.73;100299.22;104221;1261;71564;-65
2023/04/17 06:50:17;;;;;;;2.70;2.30;;;;;;;20.26;47.99;100303.58;104390;1261;69942;-62
2023/04/17 06:52:46;;;;;;;5.40;2.40;;;;;;;20.29;48.28;100304.45;104456;1259;71860;-65
2023/04/17 06:55:14;;;;;;;4.40;2.40;;;;;;;20.26;47.41;100302.86;104886;1260;63142;-65
2023/04/17 06:57:42;;;;;;;3.90;2.00;;;;;;;20.21;46.91;100302.67;104728;1268;59752;-61
2023/04/17 07:00:12;;;;;;;2.60;2.40;;;;;;;20.18;46.63;100305.93;104445;1270;72995;-61
2023/04/17 07:02:41;;;;;;;2.50;1.70;;;;;;;20.23;46.59;100306.14;104054;1270;69158;-62
2023/04/17 07:05:10;;;;;;;2.30;1.90;;;;;;;20.25;46.63;100308.27;104554;1260;72210;-62
2023/04/17 07:07:40;;;;;;;3.20;2.30;;;;;;;20.27;46.05;100308.85;104815;1260;61200;-63
2023/04/17 07:10:08;;;;;;;4.10;2.00;;;;;;;20.29;46.46;100308.36;104797;1256;60338;-62
2023/04/17 07:12:37;;;;;;;3.40;2.30;;;;;;;20.31;45.84;100311.40;104714;1257;73260;-63
2023/04/17 07:15:07;;;;;;;3.50;2.10;;;;;;;20.27;45.47;100306.20;104598;1259;69100;-62
2023/04/17 07:17:36;;;;;;;2.90;2.00;;;;;;;20.29;45.70;100308.89;104588;1260;71797;-62
2023/04/17 07:20:06;;;;;;;3.40;1.90;;;;;;;20.34;45.51;100310.33;104748;1257;61190;-62
2023/04/17 07:22:34;;;;;;;3.60;2.10;;;;;;;20.39;45.08;100310.51;104580;1254;60205;-64
2023/04/17 07:25:04;;;;;;;3.10;2.20;;;;;;;20.40;45.67;100311.44;104737;1270;72811;-62
2023/04/17 07:27:33;;;;;;;2.00;1.90;;;;;;;20.47;44.90;100309.38;104950;1264;70759;-62
2023/04/17 07:30:02;;;;;;;3.00;2.30;;;;;;;20.54;45.41;100307.40;104340;1258;72337;-62
2023/04/17 07:32:31;;;;;;;4.70;2.70;;;;;;;20.55;45.60;100309.67;104472;1272;60837;-62
2023/04/17 07:34:59;;;;;;;3.00;2.20;;;;;;;20.56;45.58;100311.00;104100;1260;60220;-62
2023/04/17 07:37:28;;;;;;;4.60;2.60;;;;;;;20.61;44.98;100310.13;104692;1260;72552;-62
2023/04/17 07:39:57;;;;;;;3.10;2.60;;;;;;;20.63;44.97;100315.46;104792;1264;68766;-62
2023/04/17 07:42:25;;;;;;;4.60;2.70;;;;;;;20.64;43.84;100309.71;104370;1275;71957;-62
2023/04/17 07:44:54;;;;;;;3.40;2.50;;;;;;;20.60;44.50;100310.92;104319;1259;62029;-62
2023/04/17 07:47:23;;;;;;;4.60;2.50;;;;;;;20.59;45.18;100308.29;104305;1257;59762;-62
2023/04/17 07:49:51;;;;;;;4.50;2.50;;;;;;;20.56;44.96;100313.55;104278;1256;73135;-62
2023/04/17 07:52:20;;;;;;;3.90;2.60;;;;;;;20.53;44.44;100315.30;104332;1267;69727;-62
2023/04/17 07:54:49;;;;;;;3.70;2.50;;;;;;;20.53;43.97;100309.59;104799;1263;72068;-64
2023/04/17 07:57:17;;;;;;;4.70;3.00;;;;;;;20.52;43.50;100307.39;104324;1273;62741;-62
2023/04/17 07:59:46;;;;;;;5.10;2.70;;;;;;;20.56;44.68;100307.06;104278;1273;60818;-63
2023/04/17 08:02:15;;;;;;;4.10;2.90;;;;;;;20.60;43.78;100307.21;104204;1260;72500;-62
2023/04/17 08:04:45;;;;;;;3.10;2.70;;;;;;;20.66;44.15;100304.65;104512;1260;68596;-62
2023/04/17 08:07:14;;;;;;;3.80;2.70;;;;;;;20.67;43.73;100303.33;104749;1260;72951;-61
2023/04/17 08:09:43;;;;;;;2.90;2.50;;;;;;;20.79;44.14;100298.16;104040;1263;61402;-62
2023/04/17 08:12:11;;;;;;;2.50;2.20;;;;;;;20.86;43.52;100296.19;104258;1273;61224;-61
2023/04/17 08:14:43;;;;;;;3.20;2.40;;;;;;;20.91;43.45;100297.91;104292;1274;73270;-62
2023/04/17 08:17:12;;;;;;;3.60;1.90;;;;;;;20.92;41.77;100297.33;104292;1270;69519;-62
2023/04/17 08:19:40;;;;;;;3.30;2.40;;;;;;;20.97;43.18;100296.42;104377;1261;72599;-62
2023/04/17 08:22:08;;;;;;;3.70;2.20;;;;;;;21.00;42.17;100294.60;104328;1278;61992;-62
2023/04/17 08:24:37;;;;;;;4.20;1.90;;;;;;;21.07;41.98;100291.73;104329;1258;59784;-62
2023/04/17 08:27:06;;;;;;;4.50;1.90;;;;;;;21.12;42.01;100292.76;104321;1259;72946;-62
2023/04/17 08:29:36;;;;;;;2.40;1.80;;;;;;;21.23;41.94;100291.07;104365;1261;68853;-65
2023/04/17 08:32:05;;;;;;;4.40;2.10;;;;;;;21.31;41.49;100292.56;104268;1278;72379;-62
2023/04/17 08:34:43;;;;;;;3.70;2.40;;;;;;;21.44;41.53;100288.35;104401;1263;61296;-61
2023/04/17 08:37:11;;;;;;;2.90;2.30;;;;;;;21.54;40.35;100284.61;105099;1260;60246;-61
2023/04/17 08:39:40;;;;;;;2.20;2.00;;;;;;;21.62;40.48;100280.13;104543;1259;72677;-62
2023/04/17 08:42:13;;;;;;;2.00;1.90;;;;;;;21.75;39.88;100281.11;104370;1267;70001;-66
2023/04/17 08:44:46;;;;;;;8.80;2.10;;;;;;;21.88;40.37;100277.29;104454;1260;73008;-66
2023/04/17 08:47:16;;;;;;;3.90;2.10;;;;;;;21.96;40.23;100277.45;104296;1255;62595;-66
2023/04/17 08:49:46;;;;;;;2.60;1.80;;;;;;;22.02;40.19;100279.65;104336;1255;60425;-66
2023/04/17 08:52:15;;;;;;;4.00;1.60;;;;;;;22.16;40.65;100277.13;104358;1260;72943;-65
2023/04/17 08:54:44;;;;;;;3.50;1.80;;;;;;;22.30;40.72;100274.41;104468;1270;68990;-66
2023/04/17 08:57:12;;;;;;;1.70;1.40;;;;;;;22.36;39.68;100275.52;104260;1257;73149;-67
2023/04/17 08:59:41;;;;;;;1.60;1.20;;;;;;;22.41;39.82;100276.91;104544;1260;62123;-67
2023/04/17 09:02:09;;;;;;;2.30;1.50;;;;;;;22.39;38.33;100277.77;104333;1259;60096;-66
2023/04/17 09:04:40;;;;;;;1.50;1.40;;;;;;;22.41;39.05;100282.22;104395;1260;74541;-67
2023/04/17 09:07:10;;;;;;;2.50;1.60;;;;;;;22.42;39.66;100279.72;104343;1268;70142;-69
2023/04/17 09:09:54;;;;;;;1.70;1.60;;;;;;;22.33;39.32;100280.92;104373;1267;73199;-69
2023/04/17 09:12:24;;;;;;;3.10;1.40;;;;;;;22.27;39.11;100281.48;104400;1257;59761;-68
2023/04/17 09:14:53;;;;;;;1.70;1.50;;;;;;;22.23;39.15;100276.76;104406;1254;59842;-69
2023/04/17 09:17:22;;;;;;;2.40;1.60;;;;;;;22.25;38.69;100272.85;104370;1270;72257;-66
2023/04/17 09:20:00;;;;;;;3.90;1.30;;;;;;;22.30;39.24;100273.30;104281;1259;69157;-66
2023/04/17 09:22:29;;;;;;;2.40;1.50;;;;;;;22.35;39.18;100270.65;104355;1260;72848;-65
2023/04/17 09:24:58;;;;;;;6.50;1.60;;;;;;;22.43;38.86;100268.93;104209;1271;60216;-68
2023/04/17 09:27:27;;;;;;;3.10;1.70;;;;;;;22.45;38.70;100269.80;104380;1278;59752;-69
2023/04/17 09:30:01;;;;;;;7.10;1.40;;;;;;;22.56;38.96;100264.39;104370;1264;72924;-69
2023/04/17 09:32:30;;;;;;;4.40;1.70;;;;;;;22.71;38.70;100256.90;104545;1260;68974;-70
2023/04/17 09:35:00;;;;;;;1.70;1.30;;;;;;;22.97;38.44;100260.96;104391;1260;72557;-71
2023/04/17 09:37:53;;;;;;;2.70;1.60;;;;;;;23.08;38.14;100259.34;104849;1254;60559;-70
2023/04/17 09:40:23;;;;;;;1.60;1.40;;;;;;;23.23;38.14;100263.28;104700;1255;59765;-70
2023/04/17 09:42:59;;;;;;;1.90;1.40;;;;;;;23.27;37.70;100258.05;104665;1260;72501;-69
2023/04/17 09:45:34;;;;;;;2.40;1.40;;;;;;;23.36;38.16;100251.79;104428;1267;69289;-70
2023/04/17 09:48:10;;;;;;;4.70;1.30;;;;;;;23.43;37.56;100247.80;104658;1254;72931;-68
2023/04/17 09:50:38;;;;;;;2.80;1.60;;;;;;;23.49;37.66;100245.24;104605;1270;60969;-67
2023/04/17 09:53:07;;;;;;;3.10;1.60;;;;;;;23.55;36.96;100244.04;104538;1254;59810;-67
2023/04/17 09:55:36;;;;;;;2.40;1.50;;;;;;;23.57;37.17;100245.29;104452;1258;72458;-69
2023/04/17 09:58:06;;;;;;;1.70;1.30;;;;;;;23.56;37.31;100246.64;104830;1255;70631;-67
2023/04/17 10:00:35;;;;;;;1.60;1.40;;;;;;;23.55;36.97;100241.74;104888;1256;72123;-65
2023/04/17 10:03:04;;;;;;;3.10;1.70;;;;;;;23.53;36.60;100242.08;104711;1257;60181;-63
2023/04/17 10:05:33;;;;;;;5.40;1.80;;;;;;;23.48;37.03;100243.58;105042;1253;59773;-64
2023/04/17 10:08:02;;;;;;;5.10;1.60;;;;;;;23.35;37.03;100247.35;104673;1251;72279;-65
2023/04/17 10:10:32;;;;;;;1.80;1.30;;;;;;;23.27;36.84;100250.76;104814;1264;69771;-63
2023/04/17 10:13:02;;;;;;;4.30;1.50;;;;;;;23.15;36.73;100247.85;104621;1252;73316;-63
2023/04/17 10:15:31;;;;;;;5.30;1.90;;;;;;;23.07;37.40;100246.73;104710;1254;60152;-64
2023/04/17 10:18:26;;;;;;;3.30;1.60;;;;;;;23.07;37.39;100246.73;104879;1257;60470;-63
2023/04/17 10:20:55;;;;;;;2.70;1.70;;;;;;;23.12;37.33;100246.84;104517;1258;73201;-63
2023/04/17 10:23:26;;;;;;;3.50;2.00;;;;;;;22.98;37.63;100251.27;104451;1251;69091;-63
2023/04/17 10:26:26;;;;;;;2.70;1.60;;;;;;;22.88;37.58;100249.72;104599;1258;73251;-63
2023/04/17 10:28:58;;;;;;;3.80;1.70;;;;;;;22.90;37.43;100247.63;104483;1256;60069;-62
2023/04/17 10:32:07;;;;;;;1.90;1.60;;;;;;;22.92;37.75;100247.80;104334;1259;59340;-63
2023/04/17 10:34:37;;;;;;;2.80;1.60;;;;;;;22.97;37.03;100249.02;104775;1251;72510;-64
2023/04/17 10:37:13;;;;;;;2.30;1.80;;;;;;;22.97;37.61;100249.14;104651;1251;69997;-63
2023/04/17 10:39:58;;;;;;;3.60;1.80;;;;;;;22.90;37.58;100248.52;104692;1254;71942;-63
2023/04/17 10:42:31;;;;;;;1.90;1.50;;;;;;;22.87;37.63;100246.98;104630;1252;60538;-62
2023/04/17 10:45:03;;;;;;;1.80;1.70;;;;;;;22.94;37.66;100251.96;104711;1257;60559;-65
2023/04/17 10:47:33;;;;;;;1.50;1.40;;;;;;;23.02;37.37;100248.39;104629;1251;74075;-65
2023/04/17 10:50:03;;;;;;;2.20;2.00;;;;;;;22.97;37.30;100251.11;104857;1251;69436;-63
2023/04/17 10:52:43;;;;;;;2.50;1.90;;;;;;;22.86;37.03;100249.24;104474;1257;72751;-64
2023/04/17 10:55:22;;;;;;;2.30;1.70;;;;;;;22.80;36.72;100251.66;104649;1254;60754;-66
2023/04/17 10:57:54;;;;;;;2.90;1.80;;;;;;;22.79;37.45;100250.70;104862;1251;60633;-63
2023/04/17 11:00:37;;;;;;;2.20;1.70;;;;;;;22.91;37.46;100253.81;105134;1251;73031;-64
2023/04/17 11:03:05;;;;;;;2.40;1.80;;;;;;;23.02;36.90;100253.61;104707;1257;68760;-64
2023/04/17 11:05:36;;;;;;;1.60;1.40;;;;;;;23.09;37.31;100249.10;104625;1251;71594;-65
2023/04/17 11:08:05;;;;;;;2.30;1.40;;;;;;;23.19;37.10;100249.08;104495;1257;60573;-65
2023/04/17 11:10:34;;;;;;;2.70;1.40;;;;;;;23.34;36.99;100248.34;104412;1257;60535;-63
2023/04/17 11:13:03;;;;;;;1.50;1.20;;;;;;;23.51;36.59;100243.16;104744;1258;73386;-63
2023/04/17 11:15:35;;;;;;;1.50;1.40;;;;;;;23.62;36.47;100240.55;104655;1251;71858;-64
2023/04/17 11:18:04;;;;;;;2.80;1.30;;;;;;;23.75;36.45;100234.08;104617;1256;73247;-64
2023/04/17 11:20:35;;;;;;;4.00;1.30;;;;;;;23.84;35.94;100232.33;104551;1266;60568;-64
2023/04/17 11:23:04;;;;;;;2.00;1.40;;;;;;;23.90;35.69;100225.55;104977;1255;60502;-67
2023/04/17 11:25:33;;;;;;;2.70;1.40;;;;;;;23.90;36.04;100223.08;104461;1267;73756;-64
2023/04/17 11:28:05;;;;;;;2.20;1.40;;;;;;;23.85;35.31;100222.58;104296;1251;70790;-63
2023/04/17 11:30:35;;;;;;;4.20;1.20;;;;;;;23.78;35.48;100216.80;104421;1257;71761;-64
2023/04/17 11:33:04;;;;;;;1.30;1.20;;;;;;;23.81;35.52;100213.64;104559;1256;60460;-64